sensor_id;sensor_type;location;lat;lon;timestamp;temperature;humidity
8928;DHT22;4499;48.304;11.902;2022-07-23T00:02:10;22.30;99.90
8928;DHT22;4499;48.304;11.902;2022-07-23T00:04:39;22.30;99.90
8928;DHT22;4499;48.304;11.902;2022-07-23T00:07:07;22.30;99.90
8928;DHT22;4499;48.304;11.902;2022-07-23T00:09:35;22.30;99.90
8928;DHT22;4499;48.304;11.902;2022-07-23T00:12:04;22.40;99.90
8928;DHT22;4499;48.304;11.902;2022-07-23T00:14:32;22.40;99.90
8928;DHT22;4499;48.304;11.902;2022-07-23T00:17:05;22.40;99.90
8928;DHT22;4499;48.304;11.902;2022-07-23T00:19:33;22.40;99.90
8928;DHT22;4499;48.304;11.902;2022-07-23T00:22:02;22.40;99.90
8928;DHT22;4499;48.304;11.902;2022-07-23T00:24:31;22.30;99.90
8928;DHT22;4499;48.304;11.902;2022-07-23T00:26:59;22.30;99.90
8928;DHT22;4499;48.304;11.902;2022-07-23T00:29:27;22.30;99.90
8928;DHT22;4499;48.304;11.902;2022-07-23T00:31:58;22.20;99.90
8928;DHT22;4499;48.304;11.902;2022-07-23T00:34:30;22.20;99.90
8928;DHT22;4499;48.304;11.902;2022-07-23T00:36:58;22.10;99.90
8928;DHT22;4499;48.304;11.902;2022-07-23T00:39:26;22.00;99.90
8928;DHT22;4499;48.304;11.902;2022-07-23T00:41:54;22.00;99.90
8928;DHT22;4499;48.304;11.902;2022-07-23T00:44:23;22.00;99.90
8928;DHT22;4499;48.304;11.902;2022-07-23T00:46:53;22.00;99.90
8928;DHT22;4499;48.304;11.902;2022-07-23T00:49:22;22.10;99.90
8928;DHT22;4499;48.304;11.902;2022-07-23T00:51:54;22.20;99.90
8928;DHT22;4499;48.304;11.902;2022-07-23T00:54:24;22.20;99.90
8928;DHT22;4499;48.304;11.902;2022-07-23T00:56:52;22.20;99.90
8928;DHT22;4499;48.304;11.902;2022-07-23T00:59:20;22.20;99.90
8928;DHT22;4499;48.304;11.902;2022-07-23T01:01:49;22.10;99.90
8928;DHT22;4499;48.304;11.902;2022-07-23T01:04:17;22.10;99.90
8928;DHT22;4499;48.304;11.902;2022-07-23T01:06:45;22.10;99.90
8928;DHT22;4499;48.304;11.902;2022-07-23T01:09:18;22.00;99.90
8928;DHT22;4499;48.304;11.902;2022-07-23T01:11:50;22.00;99.90
8928;DHT22;4499;48.304;11.902;2022-07-23T01:14:19;21.90;99.90
8928;DHT22;4499;48.304;11.902;2022-07-23T01:16:48;21.80;99.90
8928;DHT22;4499;48.304;11.902;2022-07-23T01:19:17;21.70;99.90
8928;DHT22;4499;48.304;11.902;2022-07-23T01:21:47;21.70;99.90
8928;DHT22;4499;48.304;11.902;2022-07-23T01:24:18;21.60;99.90
8928;DHT22;4499;48.304;11.902;2022-07-23T01:26:48;21.50;99.90
8928;DHT22;4499;48.304;11.902;2022-07-23T01:29:16;21.40;99.90
8928;DHT22;4499;48.304;11.902;2022-07-23T01:31:46;21.30;99.90
8928;DHT22;4499;48.304;11.902;2022-07-23T01:34:15;21.30;99.90
8928;DHT22;4499;48.304;11.902;2022-07-23T01:36:43;21.30;99.90
8928;DHT22;4499;48.304;11.902;2022-07-23T01:39:12;21.30;99.90
8928;DHT22;4499;48.304;11.902;2022-07-23T01:41:43;21.40;99.90
8928;DHT22;4499;48.304;11.902;2022-07-23T01:44:17;21.60;99.90
8928;DHT22;4499;48.304;11.902;2022-07-23T01:46:45;21.80;99.90
8928;DHT22;4499;48.304;11.902;2022-07-23T01:49:13;21.90;99.90
8928;DHT22;4499;48.304;11.902;2022-07-23T01:51:43;21.90;99.90
8928;DHT22;4499;48.304;11.902;2022-07-23T01:54:26;22.00;99.90
8928;DHT22;4499;48.304;11.902;2022-07-23T01:56:59;22.00;99.90
8928;DHT22;4499;48.304;11.902;2022-07-23T01:59:27;22.00;99.90
8928;DHT22;4499;48.304;11.902;2022-07-23T02:01:56;22.00;99.90
8928;DHT22;4499;48.304;11.902;2022-07-23T02:04:25;22.00;99.90
8928;DHT22;4499;48.304;11.902;2022-07-23T02:06:54;21.90;99.90
8928;DHT22;4499;48.304;11.902;2022-07-23T02:09:22;21.80;99.90
8928;DHT22;4499;48.304;11.902;2022-07-23T02:11:53;21.80;99.90
8928;DHT22;4499;48.304;11.902;2022-07-23T02:14:23;21.70;99.90
8928;DHT22;4499;48.304;11.902;2022-07-23T02:16:51;21.60;99.90
8928;DHT22;4499;48.304;11.902;2022-07-23T02:19:20;21.50;99.90
8928;DHT22;4499;48.304;11.902;2022-07-23T02:21:49;21.40;99.90
8928;DHT22;4499;48.304;11.902;2022-07-23T02:24:18;21.30;99.90
8928;DHT22;4499;48.304;11.902;2022-07-23T02:26:46;21.20;99.90
8928;DHT22;4499;48.304;11.902;2022-07-23T02:29:17;21.10;99.90
8928;DHT22;4499;48.304;11.902;2022-07-23T02:31:47;20.80;99.90
8928;DHT22;4499;48.304;11.902;2022-07-23T02:34:15;20.50;99.90
8928;DHT22;4499;48.304;11.902;2022-07-23T02:36:43;20.30;99.90
8928;DHT22;4499;48.304;11.902;2022-07-23T02:39:13;20.00;99.90
8928;DHT22;4499;48.304;11.902;2022-07-23T02:41:42;19.80;99.90
8928;DHT22;4499;48.304;11.902;2022-07-23T02:44:10;19.60;99.90
8928;DHT22;4499;48.304;11.902;2022-07-23T02:46:38;19.30;99.90
8928;DHT22;4499;48.304;11.902;2022-07-23T02:49:08;19.20;99.90
8928;DHT22;4499;48.304;11.902;2022-07-23T02:51:36;19.00;99.90
8928;DHT22;4499;48.304;11.902;2022-07-23T02:54:05;18.80;99.90
8928;DHT22;4499;48.304;11.902;2022-07-23T02:56:33;18.70;99.90
8928;DHT22;4499;48.304;11.902;2022-07-23T02:59:02;18.60;99.90
8928;DHT22;4499;48.304;11.902;2022-07-23T03:01:31;18.60;99.90
8928;DHT22;4499;48.304;11.902;2022-07-23T03:03:59;18.40;99.90
8928;DHT22;4499;48.304;11.902;2022-07-23T03:06:34;18.30;99.90
8928;DHT22;4499;48.304;11.902;2022-07-23T03:09:03;18.20;99.90
8928;DHT22;4499;48.304;11.902;2022-07-23T03:11:31;18.20;99.90
8928;DHT22;4499;48.304;11.902;2022-07-23T03:13:59;18.10;99.90
8928;DHT22;4499;48.304;11.902;2022-07-23T03:16:27;18.00;99.90
8928;DHT22;4499;48.304;11.902;2022-07-23T03:18:55;18.00;99.90
8928;DHT22;4499;48.304;11.902;2022-07-23T03:21:29;18.00;99.90
8928;DHT22;4499;48.304;11.902;2022-07-23T03:23:57;18.00;99.90
8928;DHT22;4499;48.304;11.902;2022-07-23T03:26:26;17.90;99.90
8928;DHT22;4499;48.304;11.902;2022-07-23T03:28:55;17.90;99.90
8928;DHT22;4499;48.304;11.902;2022-07-23T03:31:23;17.80;99.90
8928;DHT22;4499;48.304;11.902;2022-07-23T03:33:52;17.80;99.90
8928;DHT22;4499;48.304;11.902;2022-07-23T03:36:20;17.80;99.90
8928;DHT22;4499;48.304;11.902;2022-07-23T03:38:52;17.80;99.90
8928;DHT22;4499;48.304;11.902;2022-07-23T03:41:20;17.80;99.90
8928;DHT22;4499;48.304;11.902;2022-07-23T03:43:49;17.90;99.90
8928;DHT22;4499;48.304;11.902;2022-07-23T03:46:20;17.90;99.90
8928;DHT22;4499;48.304;11.902;2022-07-23T03:48:48;17.90;99.90
8928;DHT22;4499;48.304;11.902;2022-07-23T03:51:23;17.90;99.90
8928;DHT22;4499;48.304;11.902;2022-07-23T03:53:54;18.00;99.90
8928;DHT22;4499;48.304;11.902;2022-07-23T03:56:23;17.90;99.90
8928;DHT22;4499;48.304;11.902;2022-07-23T03:58:51;17.90;99.90
8928;DHT22;4499;48.304;11.902;2022-07-23T04:01:19;17.90;99.90
8928;DHT22;4499;48.304;11.902;2022-07-23T04:03:48;17.90;99.90
8928;DHT22;4499;48.304;11.902;2022-07-23T04:06:19;17.90;99.90
8928;DHT22;4499;48.304;11.902;2022-07-23T04:08:48;17.90;99.90
8928;DHT22;4499;48.304;11.902;2022-07-23T04:11:17;18.00;99.90
8928;DHT22;4499;48.304;11.902;2022-07-23T04:13:46;18.00;99.90
8928;DHT22;4499;48.304;11.902;2022-07-23T04:16:14;18.00;99.90
8928;DHT22;4499;48.304;11.902;2022-07-23T04:18:42;17.90;99.90
8928;DHT22;4499;48.304;11.902;2022-07-23T04:21:11;18.00;99.90
8928;DHT22;4499;48.304;11.902;2022-07-23T04:23:39;17.90;99.90
8928;DHT22;4499;48.304;11.902;2022-07-23T04:26:07;18.00;99.90
8928;DHT22;4499;48.304;11.902;2022-07-23T04:28:44;18.00;99.90
8928;DHT22;4499;48.304;11.902;2022-07-23T04:31:13;18.00;99.90
8928;DHT22;4499;48.304;11.902;2022-07-23T04:33:41;18.00;99.90
8928;DHT22;4499;48.304;11.902;2022-07-23T04:36:09;18.10;99.90
8928;DHT22;4499;48.304;11.902;2022-07-23T04:38:37;18.10;99.90
8928;DHT22;4499;48.304;11.902;2022-07-23T04:41:05;18.10;99.90
8928;DHT22;4499;48.304;11.902;2022-07-23T04:43:34;18.10;99.90
8928;DHT22;4499;48.304;11.902;2022-07-23T04:46:04;18.10;99.90
8928;DHT22;4499;48.304;11.902;2022-07-23T04:48:32;18.20;99.90
8928;DHT22;4499;48.304;11.902;2022-07-23T04:51:02;18.20;99.90
8928;DHT22;4499;48.304;11.902;2022-07-23T04:53:30;18.20;99.90
8928;DHT22;4499;48.304;11.902;2022-07-23T04:55:59;18.30;99.90
8928;DHT22;4499;48.304;11.902;2022-07-23T04:58:28;18.30;99.90
8928;DHT22;4499;48.304;11.902;2022-07-23T05:00:58;18.30;99.90
8928;DHT22;4499;48.304;11.902;2022-07-23T05:03:28;18.40;99.90
8928;DHT22;4499;48.304;11.902;2022-07-23T05:05:56;18.40;99.90
8928;DHT22;4499;48.304;11.902;2022-07-23T05:08:25;18.50;99.90
8928;DHT22;4499;48.304;11.902;2022-07-23T05:10:53;18.50;99.90
8928;DHT22;4499;48.304;11.902;2022-07-23T05:13:21;18.60;99.90
8928;DHT22;4499;48.304;11.902;2022-07-23T05:15:49;18.60;99.90
8928;DHT22;4499;48.304;11.902;2022-07-23T05:18:18;18.60;99.90
8928;DHT22;4499;48.304;11.902;2022-07-23T05:20:51;18.70;99.90
8928;DHT22;4499;48.304;11.902;2022-07-23T05:23:19;18.70;99.90
8928;DHT22;4499;48.304;11.902;2022-07-23T05:25:47;18.70;99.90
8928;DHT22;4499;48.304;11.902;2022-07-23T05:28:16;18.70;99.90
8928;DHT22;4499;48.304;11.902;2022-07-23T05:30:48;18.80;99.90
8928;DHT22;4499;48.304;11.902;2022-07-23T05:33:18;18.90;99.90
8928;DHT22;4499;48.304;11.902;2022-07-23T05:35:48;18.90;99.90
8928;DHT22;4499;48.304;11.902;2022-07-23T05:38:18;18.90;99.90
8928;DHT22;4499;48.304;11.902;2022-07-23T05:40:46;19.00;99.90
8928;DHT22;4499;48.304;11.902;2022-07-23T05:43:15;19.00;99.90
8928;DHT22;4499;48.304;11.902;2022-07-23T05:45:43;19.00;99.90
8928;DHT22;4499;48.304;11.902;2022-07-23T05:48:13;19.00;99.90
8928;DHT22;4499;48.304;11.902;2022-07-23T05:50:42;19.00;99.90
8928;DHT22;4499;48.304;11.902;2022-07-23T05:53:11;19.00;99.90
8928;DHT22;4499;48.304;11.902;2022-07-23T05:55:39;19.10;99.90
8928;DHT22;4499;48.304;11.902;2022-07-23T05:58:08;19.10;99.90
8928;DHT22;4499;48.304;11.902;2022-07-23T06:00:39;19.10;99.90
8928;DHT22;4499;48.304;11.902;2022-07-23T06:03:10;19.10;99.90
8928;DHT22;4499;48.304;11.902;2022-07-23T06:05:38;19.20;99.90
8928;DHT22;4499;48.304;11.902;2022-07-23T06:08:06;19.30;99.90
8928;DHT22;4499;48.304;11.902;2022-07-23T06:10:36;19.40;99.90
8928;DHT22;4499;48.304;11.902;2022-07-23T06:13:04;19.50;99.90
8928;DHT22;4499;48.304;11.902;2022-07-23T06:15:32;19.50;99.90
8928;DHT22;4499;48.304;11.902;2022-07-23T06:18:00;19.50;99.90
8928;DHT22;4499;48.304;11.902;2022-07-23T06:20:29;19.60;99.90
8928;DHT22;4499;48.304;11.902;2022-07-23T06:22:58;19.70;99.90
8928;DHT22;4499;48.304;11.902;2022-07-23T06:25:26;19.60;99.90
8928;DHT22;4499;48.304;11.902;2022-07-23T06:27:56;19.80;99.90
8928;DHT22;4499;48.304;11.902;2022-07-23T06:30:24;19.90;99.90
8928;DHT22;4499;48.304;11.902;2022-07-23T06:32:54;20.00;99.90
8928;DHT22;4499;48.304;11.902;2022-07-23T06:35:23;20.20;99.90
8928;DHT22;4499;48.304;11.902;2022-07-23T06:37:52;20.30;99.90
8928;DHT22;4499;48.304;11.902;2022-07-23T06:40:21;20.30;99.90
8928;DHT22;4499;48.304;11.902;2022-07-23T06:42:49;20.30;99.90
8928;DHT22;4499;48.304;11.902;2022-07-23T06:45:19;20.40;99.90
8928;DHT22;4499;48.304;11.902;2022-07-23T06:47:47;20.50;99.90
8928;DHT22;4499;48.304;11.902;2022-07-23T06:50:15;20.50;99.90
8928;DHT22;4499;48.304;11.902;2022-07-23T06:52:45;20.50;99.90
8928;DHT22;4499;48.304;11.902;2022-07-23T06:55:13;20.50;99.90
8928;DHT22;4499;48.304;11.902;2022-07-23T06:57:41;20.60;99.90
8928;DHT22;4499;48.304;11.902;2022-07-23T07:00:11;20.70;99.90
8928;DHT22;4499;48.304;11.902;2022-07-23T07:02:41;20.80;99.90
8928;DHT22;4499;48.304;11.902;2022-07-23T07:05:09;20.90;99.90
8928;DHT22;4499;48.304;11.902;2022-07-23T07:07:38;21.10;99.90
8928;DHT22;4499;48.304;11.902;2022-07-23T07:10:07;21.10;99.90
8928;DHT22;4499;48.304;11.902;2022-07-23T07:12:41;21.00;99.90
8928;DHT22;4499;48.304;11.902;2022-07-23T07:15:10;21.00;99.90
8928;DHT22;4499;48.304;11.902;2022-07-23T07:17:38;20.80;99.90
8928;DHT22;4499;48.304;11.902;2022-07-23T07:20:09;20.80;99.90
8928;DHT22;4499;48.304;11.902;2022-07-23T07:22:44;20.80;99.90
8928;DHT22;4499;48.304;11.902;2022-07-23T07:25:12;20.80;99.90
8928;DHT22;4499;48.304;11.902;2022-07-23T07:27:40;21.00;99.90
8928;DHT22;4499;48.304;11.902;2022-07-23T07:30:11;21.30;99.90
8928;DHT22;4499;48.304;11.902;2022-07-23T07:32:40;21.50;99.90
8928;DHT22;4499;48.304;11.902;2022-07-23T07:35:26;21.60;99.90
8928;DHT22;4499;48.304;11.902;2022-07-23T07:37:54;21.70;99.90
8928;DHT22;4499;48.304;11.902;2022-07-23T07:40:22;21.90;99.90
8928;DHT22;4499;48.304;11.902;2022-07-23T07:42:57;22.00;99.90
8928;DHT22;4499;48.304;11.902;2022-07-23T07:45:28;22.00;99.90
8928;DHT22;4499;48.304;11.902;2022-07-23T07:47:56;22.00;99.90
8928;DHT22;4499;48.304;11.902;2022-07-23T07:50:28;22.10;99.90
8928;DHT22;4499;48.304;11.902;2022-07-23T07:52:56;22.20;99.90
8928;DHT22;4499;48.304;11.902;2022-07-23T07:55:28;22.40;99.90
8928;DHT22;4499;48.304;11.902;2022-07-23T07:57:59;22.50;99.90
8928;DHT22;4499;48.304;11.902;2022-07-23T08:00:28;22.60;99.90
8928;DHT22;4499;48.304;11.902;2022-07-23T08:02:58;22.50;99.90
8928;DHT22;4499;48.304;11.902;2022-07-23T08:05:30;22.40;99.90
8928;DHT22;4499;48.304;11.902;2022-07-23T08:07:59;22.20;99.90
8928;DHT22;4499;48.304;11.902;2022-07-23T08:10:31;22.10;99.90
8928;DHT22;4499;48.304;11.902;2022-07-23T08:12:59;22.00;99.90
8928;DHT22;4499;48.304;11.902;2022-07-23T08:15:29;21.90;99.90
8928;DHT22;4499;48.304;11.902;2022-07-23T08:17:59;21.80;99.90
8928;DHT22;4499;48.304;11.902;2022-07-23T08:20:32;21.80;99.90
8928;DHT22;4499;48.304;11.902;2022-07-23T08:23:05;21.60;99.90
8928;DHT22;4499;48.304;11.902;2022-07-23T08:25:35;21.50;99.90
8928;DHT22;4499;48.304;11.902;2022-07-23T08:28:06;21.40;99.90
8928;DHT22;4499;48.304;11.902;2022-07-23T08:30:38;21.30;99.90
8928;DHT22;4499;48.304;11.902;2022-07-23T08:33:08;21.20;99.90
8928;DHT22;4499;48.304;11.902;2022-07-23T08:36:00;21.20;99.90
8928;DHT22;4499;48.304;11.902;2022-07-23T08:38:30;21.10;99.90
8928;DHT22;4499;48.304;11.902;2022-07-23T08:40:59;21.00;99.90
8928;DHT22;4499;48.304;11.902;2022-07-23T08:43:28;21.00;99.90
8928;DHT22;4499;48.304;11.902;2022-07-23T08:45:59;21.00;99.90
8928;DHT22;4499;48.304;11.902;2022-07-23T08:48:29;20.90;99.90
8928;DHT22;4499;48.304;11.902;2022-07-23T08:51:00;20.80;99.90
8928;DHT22;4499;48.304;11.902;2022-07-23T08:53:29;20.80;99.90
8928;DHT22;4499;48.304;11.902;2022-07-23T08:55:59;20.90;99.90
8928;DHT22;4499;48.304;11.902;2022-07-23T08:58:29;21.00;99.90
8928;DHT22;4499;48.304;11.902;2022-07-23T09:00:57;21.00;99.90
8928;DHT22;4499;48.304;11.902;2022-07-23T09:03:27;21.10;99.90
8928;DHT22;4499;48.304;11.902;2022-07-23T09:06:07;21.20;99.90
8928;DHT22;4499;48.304;11.902;2022-07-23T09:08:37;21.30;99.90
8928;DHT22;4499;48.304;11.902;2022-07-23T09:11:06;21.50;99.90
8928;DHT22;4499;48.304;11.902;2022-07-23T09:13:38;21.50;99.90
8928;DHT22;4499;48.304;11.902;2022-07-23T09:16:09;21.50;99.90
8928;DHT22;4499;48.304;11.902;2022-07-23T09:18:42;21.60;99.90
8928;DHT22;4499;48.304;11.902;2022-07-23T09:21:21;21.60;99.90
8928;DHT22;4499;48.304;11.902;2022-07-23T09:23:55;21.70;99.90
8928;DHT22;4499;48.304;11.902;2022-07-23T09:26:34;21.50;99.90
8928;DHT22;4499;48.304;11.902;2022-07-23T09:29:08;21.50;99.90
8928;DHT22;4499;48.304;11.902;2022-07-23T09:31:49;21.40;99.90
8928;DHT22;4499;48.304;11.902;2022-07-23T09:34:19;21.40;99.90
8928;DHT22;4499;48.304;11.902;2022-07-23T09:36:53;21.40;99.90
8928;DHT22;4499;48.304;11.902;2022-07-23T09:39:28;21.50;99.90
8928;DHT22;4499;48.304;11.902;2022-07-23T09:41:57;21.60;99.90
8928;DHT22;4499;48.304;11.902;2022-07-23T09:44:25;21.70;99.90
8928;DHT22;4499;48.304;11.902;2022-07-23T09:46:58;22.00;99.90
8928;DHT22;4499;48.304;11.902;2022-07-23T09:49:28;22.40;99.90
8928;DHT22;4499;48.304;11.902;2022-07-23T09:51:59;22.80;99.90
8928;DHT22;4499;48.304;11.902;2022-07-23T09:54:33;23.40;99.90
8928;DHT22;4499;48.304;11.902;2022-07-23T09:57:04;23.80;99.90
8928;DHT22;4499;48.304;11.902;2022-07-23T09:59:36;24.40;99.90
8928;DHT22;4499;48.304;11.902;2022-07-23T10:02:08;25.20;99.90
8928;DHT22;4499;48.304;11.902;2022-07-23T10:04:36;26.10;99.90
8928;DHT22;4499;48.304;11.902;2022-07-23T10:07:08;27.00;99.90
8928;DHT22;4499;48.304;11.902;2022-07-23T10:09:38;27.60;99.90
8928;DHT22;4499;48.304;11.902;2022-07-23T10:12:10;28.00;99.90
8928;DHT22;4499;48.304;11.902;2022-07-23T10:14:52;28.30;99.90
8928;DHT22;4499;48.304;11.902;2022-07-23T10:17:21;29.20;99.90
8928;DHT22;4499;48.304;11.902;2022-07-23T10:19:49;30.20;99.90
8928;DHT22;4499;48.304;11.902;2022-07-23T10:22:24;31.40;99.90
8928;DHT22;4499;48.304;11.902;2022-07-23T10:24:59;31.90;99.90
8928;DHT22;4499;48.304;11.902;2022-07-23T10:30:47;33.10;98.60
8928;DHT22;4499;48.304;11.902;2022-07-23T10:33:31;34.00;98.70
8928;DHT22;4499;48.304;11.902;2022-07-23T10:36:06;33.70;98.50
8928;DHT22;4499;48.304;11.902;2022-07-23T10:38:42;34.40;97.10
8928;DHT22;4499;48.304;11.902;2022-07-23T10:41:15;34.30;93.30
8928;DHT22;4499;48.304;11.902;2022-07-23T10:44:06;33.50;95.60
8928;DHT22;4499;48.304;11.902;2022-07-23T10:46:35;33.60;96.70
8928;DHT22;4499;48.304;11.902;2022-07-23T10:49:26;34.00;94.70
8928;DHT22;4499;48.304;11.902;2022-07-23T10:52:21;34.20;94.20
8928;DHT22;4499;48.304;11.902;2022-07-23T10:54:56;34.20;93.30
8928;DHT22;4499;48.304;11.902;2022-07-23T10:57:48;33.90;93.30
8928;DHT22;4499;48.304;11.902;2022-07-23T11:00:22;34.10;93.00
8928;DHT22;4499;48.304;11.902;2022-07-23T11:02:54;34.00;92.80
8928;DHT22;4499;48.304;11.902;2022-07-23T11:05:24;33.60;94.00
8928;DHT22;4499;48.304;11.902;2022-07-23T11:08:13;33.80;94.40
8928;DHT22;4499;48.304;11.902;2022-07-23T11:10:50;33.70;94.60
8928;DHT22;4499;48.304;11.902;2022-07-23T11:13:36;33.80;95.10
8928;DHT22;4499;48.304;11.902;2022-07-23T11:16:16;33.40;94.00
8928;DHT22;4499;48.304;11.902;2022-07-23T11:19:07;33.20;93.40
8928;DHT22;4499;48.304;11.902;2022-07-23T11:21:51;32.60;95.50
8928;DHT22;4499;48.304;11.902;2022-07-23T11:24:21;31.50;96.00
8928;DHT22;4499;48.304;11.902;2022-07-23T11:26:54;31.00;96.10
8928;DHT22;4499;48.304;11.902;2022-07-23T11:29:45;30.90;98.50
8928;DHT22;4499;48.304;11.902;2022-07-23T11:32:35;31.00;98.80
8928;DHT22;4499;48.304;11.902;2022-07-23T11:35:26;31.10;98.00
8928;DHT22;4499;48.304;11.902;2022-07-23T11:38:03;31.20;98.30
8928;DHT22;4499;48.304;11.902;2022-07-23T11:40:32;31.20;98.90
8928;DHT22;4499;48.304;11.902;2022-07-23T11:43:04;31.60;96.20
8928;DHT22;4499;48.304;11.902;2022-07-23T11:45:34;31.40;96.00
8928;DHT22;4499;48.304;11.902;2022-07-23T11:48:04;31.00;95.80
8928;DHT22;4499;48.304;11.902;2022-07-23T11:50:33;31.00;95.10
8928;DHT22;4499;48.304;11.902;2022-07-23T11:53:05;30.60;96.10
8928;DHT22;4499;48.304;11.902;2022-07-23T11:55:34;30.30;95.60
8928;DHT22;4499;48.304;11.902;2022-07-23T11:58:05;30.00;97.90
8928;DHT22;4499;48.304;11.902;2022-07-23T12:00:34;29.80;96.80
8928;DHT22;4499;48.304;11.902;2022-07-23T12:03:07;29.30;96.10
8928;DHT22;4499;48.304;11.902;2022-07-23T12:05:37;29.10;97.10
8928;DHT22;4499;48.304;11.902;2022-07-23T12:08:07;28.70;97.50
8928;DHT22;4499;48.304;11.902;2022-07-23T12:10:38;28.70;99.30
8928;DHT22;4499;48.304;11.902;2022-07-23T12:13:11;28.70;98.70
8928;DHT22;4499;48.304;11.902;2022-07-23T12:15:41;28.80;98.60
8928;DHT22;4499;48.304;11.902;2022-07-23T12:18:12;28.70;98.80
8928;DHT22;4499;48.304;11.902;2022-07-23T12:20:42;29.10;98.30
8928;DHT22;4499;48.304;11.902;2022-07-23T12:23:13;29.40;99.30
8928;DHT22;4499;48.304;11.902;2022-07-23T12:25:48;29.50;98.30
8928;DHT22;4499;48.304;11.902;2022-07-23T12:28:19;29.20;96.30
8928;DHT22;4499;48.304;11.902;2022-07-23T12:30:49;29.10;97.70
8928;DHT22;4499;48.304;11.902;2022-07-23T12:33:23;29.20;97.70
8928;DHT22;4499;48.304;11.902;2022-07-23T12:35:53;29.40;97.20
8928;DHT22;4499;48.304;11.902;2022-07-23T12:38:24;29.80;98.90
8928;DHT22;4499;48.304;11.902;2022-07-23T12:40:53;29.90;98.00
8928;DHT22;4499;48.304;11.902;2022-07-23T12:43:25;29.80;97.50
8928;DHT22;4499;48.304;11.902;2022-07-23T12:45:56;29.20;95.80
8928;DHT22;4499;48.304;11.902;2022-07-23T12:48:29;28.90;95.40
8928;DHT22;4499;48.304;11.902;2022-07-23T12:50:58;28.70;96.60
8928;DHT22;4499;48.304;11.902;2022-07-23T12:53:30;28.50;97.10
8928;DHT22;4499;48.304;11.902;2022-07-23T12:56:04;28.30;98.50
8928;DHT22;4499;48.304;11.902;2022-07-23T12:58:46;28.10;99.50
8928;DHT22;4499;48.304;11.902;2022-07-23T13:01:30;27.80;99.90
8928;DHT22;4499;48.304;11.902;2022-07-23T13:04:02;27.60;99.00
8928;DHT22;4499;48.304;11.902;2022-07-23T13:06:42;27.60;98.80
8928;DHT22;4499;48.304;11.902;2022-07-23T13:09:13;27.50;99.90
8928;DHT22;4499;48.304;11.902;2022-07-23T13:11:42;27.30;99.90
8928;DHT22;4499;48.304;11.902;2022-07-23T13:14:18;27.00;99.90
8928;DHT22;4499;48.304;11.902;2022-07-23T13:16:48;26.90;99.90
8928;DHT22;4499;48.304;11.902;2022-07-23T13:19:18;26.60;99.90
8928;DHT22;4499;48.304;11.902;2022-07-23T13:21:50;26.30;99.90
8928;DHT22;4499;48.304;11.902;2022-07-23T13:24:21;26.30;99.90
8928;DHT22;4499;48.304;11.902;2022-07-23T13:26:58;26.20;99.90
8928;DHT22;4499;48.304;11.902;2022-07-23T13:29:28;26.20;99.90
8928;DHT22;4499;48.304;11.902;2022-07-23T13:31:59;26.10;99.90
8928;DHT22;4499;48.304;11.902;2022-07-23T13:34:36;26.00;99.90
8928;DHT22;4499;48.304;11.902;2022-07-23T13:37:07;25.80;99.90
8928;DHT22;4499;48.304;11.902;2022-07-23T13:39:38;25.80;99.90
8928;DHT22;4499;48.304;11.902;2022-07-23T13:42:08;25.80;99.90
8928;DHT22;4499;48.304;11.902;2022-07-23T13:44:38;25.80;99.90
8928;DHT22;4499;48.304;11.902;2022-07-23T13:47:06;25.80;99.90
8928;DHT22;4499;48.304;11.902;2022-07-23T13:49:35;25.90;99.90
8928;DHT22;4499;48.304;11.902;2022-07-23T13:52:07;25.90;99.90
8928;DHT22;4499;48.304;11.902;2022-07-23T13:54:35;26.00;99.90
8928;DHT22;4499;48.304;11.902;2022-07-23T13:57:03;26.00;99.90
8928;DHT22;4499;48.304;11.902;2022-07-23T13:59:32;26.00;99.90
8928;DHT22;4499;48.304;11.902;2022-07-23T14:02:04;26.00;99.90
8928;DHT22;4499;48.304;11.902;2022-07-23T14:04:53;26.10;99.90
8928;DHT22;4499;48.304;11.902;2022-07-23T14:07:21;26.10;99.90
8928;DHT22;4499;48.304;11.902;2022-07-23T14:09:50;26.10;99.90
8928;DHT22;4499;48.304;11.902;2022-07-23T14:12:19;26.00;99.90
8928;DHT22;4499;48.304;11.902;2022-07-23T14:14:49;26.00;99.90
8928;DHT22;4499;48.304;11.902;2022-07-23T14:17:20;26.00;99.90
8928;DHT22;4499;48.304;11.902;2022-07-23T14:19:53;26.10;99.90
8928;DHT22;4499;48.304;11.902;2022-07-23T14:22:21;26.40;99.90
8928;DHT22;4499;48.304;11.902;2022-07-23T14:24:53;26.60;99.90
8928;DHT22;4499;48.304;11.902;2022-07-23T14:27:24;26.60;99.90
8928;DHT22;4499;48.304;11.902;2022-07-23T14:29:54;26.60;99.90
8928;DHT22;4499;48.304;11.902;2022-07-23T14:32:24;26.60;99.90
8928;DHT22;4499;48.304;11.902;2022-07-23T14:34:53;26.50;99.90
8928;DHT22;4499;48.304;11.902;2022-07-23T14:37:25;26.30;99.90
8928;DHT22;4499;48.304;11.902;2022-07-23T14:39:53;26.00;99.90
8928;DHT22;4499;48.304;11.902;2022-07-23T14:42:22;25.90;99.90
8928;DHT22;4499;48.304;11.902;2022-07-23T14:44:50;25.60;99.90
8928;DHT22;4499;48.304;11.902;2022-07-23T14:47:19;25.40;99.90
8928;DHT22;4499;48.304;11.902;2022-07-23T14:49:49;25.20;99.90
8928;DHT22;4499;48.304;11.902;2022-07-23T14:52:18;25.00;99.90
8928;DHT22;4499;48.304;11.902;2022-07-23T14:54:47;24.90;99.90
8928;DHT22;4499;48.304;11.902;2022-07-23T14:57:18;24.90;99.90
8928;DHT22;4499;48.304;11.902;2022-07-23T14:59:52;24.90;99.90
8928;DHT22;4499;48.304;11.902;2022-07-23T15:02:22;24.90;99.90
8928;DHT22;4499;48.304;11.902;2022-07-23T15:04:52;25.00;99.90
8928;DHT22;4499;48.304;11.902;2022-07-23T15:07:22;25.10;99.90
8928;DHT22;4499;48.304;11.902;2022-07-23T15:09:53;25.20;99.90
8928;DHT22;4499;48.304;11.902;2022-07-23T15:12:21;25.60;99.90
8928;DHT22;4499;48.304;11.902;2022-07-23T15:14:52;25.60;99.90
8928;DHT22;4499;48.304;11.902;2022-07-23T15:17:25;25.80;99.90
8928;DHT22;4499;48.304;11.902;2022-07-23T15:19:55;25.90;99.90
8928;DHT22;4499;48.304;11.902;2022-07-23T15:22:23;25.90;99.90
8928;DHT22;4499;48.304;11.902;2022-07-23T15:24:51;25.70;99.90
8928;DHT22;4499;48.304;11.902;2022-07-23T15:27:20;25.60;99.90
8928;DHT22;4499;48.304;11.902;2022-07-23T15:29:51;25.60;99.90
8928;DHT22;4499;48.304;11.902;2022-07-23T15:32:19;25.50;99.90
8928;DHT22;4499;48.304;11.902;2022-07-23T15:34:47;25.50;99.90
8928;DHT22;4499;48.304;11.902;2022-07-23T15:37:16;25.40;99.90
8928;DHT22;4499;48.304;11.902;2022-07-23T15:39:45;25.40;99.90
8928;DHT22;4499;48.304;11.902;2022-07-23T15:42:16;25.50;99.90
8928;DHT22;4499;48.304;11.902;2022-07-23T15:44:46;25.70;99.90
8928;DHT22;4499;48.304;11.902;2022-07-23T15:47:17;25.90;99.90
8928;DHT22;4499;48.304;11.902;2022-07-23T15:49:46;26.20;99.90
8928;DHT22;4499;48.304;11.902;2022-07-23T15:52:16;26.40;99.90
8928;DHT22;4499;48.304;11.902;2022-07-23T15:54:47;26.70;99.90
8928;DHT22;4499;48.304;11.902;2022-07-23T15:57:17;26.80;99.90
8928;DHT22;4499;48.304;11.902;2022-07-23T15:59:47;26.80;99.90
8928;DHT22;4499;48.304;11.902;2022-07-23T16:02:16;26.70;99.90
8928;DHT22;4499;48.304;11.902;2022-07-23T16:04:48;26.70;99.90
8928;DHT22;4499;48.304;11.902;2022-07-23T16:07:19;26.70;99.90
8928;DHT22;4499;48.304;11.902;2022-07-23T16:09:47;26.60;99.90
8928;DHT22;4499;48.304;11.902;2022-07-23T16:12:16;26.60;99.90